Time;durP1;ratioP1;P1;durP2;ratioP2;P2;SDS_P1;SDS_P2;PMS_P1;PMS_P2;Temp;Humidity;BMP_temperature;BMP_pressure;BME280_temperature;BME280_humidity;BME280_pressure;Samples;Min_cycle;Max_cycle;Signal;HPM_P1;HPM_P2
2022/02/10 00:08:33;;;;;;;0.10;0.10;;;;;;;;;;5044867;28;20090;-81
2022/02/10 00:21:45;;;;;;;0.55;0.55;;;;;;;;;;5021304;28;20036;-82
2022/02/10 00:35:23;;;;;;;0.20;0.20;;;;;;;;;;5021237;28;20542;-82
2022/02/10 00:37:59;;;;;;;0.32;0.32;;;;;;;;;;5001504;28;20640;-81
2022/02/10 00:40:26;;;;;;;0.25;0.25;;;;;;;;;;5021482;28;20052;-81
2022/02/10 00:42:53;;;;;;;0.10;0.10;;;;;;;;;;5015945;28;20050;-81
2022/02/10 00:45:20;;;;;;;0.20;0.20;;;;;;;;;;5014246;28;20095;-80
2022/02/10 00:47:59;;;;;;;0.52;0.52;;;;;;;;;;5004545;28;20045;-82
2022/02/10 00:50:27;;;;;;;0.20;0.20;;;;;;;;;;5019206;28;20100;-81
2022/02/10 00:53:39;;;;;;;0.28;0.28;;;;;;;;;;5021209;28;20044;-81
2022/02/10 00:55:45;;;;;;;0.10;0.10;;;;;;;;;;5019675;28;20068;-81
2022/02/10 00:58:18;;;;;;;0.10;0.10;;;;;;;;;;5023099;28;20032;-81
2022/02/10 01:30:22;;;;;;;0.15;0.15;;;;;;;;;;5013118;28;20056;-83
2022/02/10 01:32:53;;;;;;;0.10;0.10;;;;;;;;;;5013370;28;20036;-84
2022/02/10 01:35:22;;;;;;;0.80;0.50;;;;;;;;;;5004030;28;20076;-83
2022/02/10 01:37:49;;;;;;;0.10;0.10;;;;;;;;;;5005469;28;20164;-83
2022/02/10 01:40:29;;;;;;;0.10;0.10;;;;;;;;;;5011365;28;20053;-83
2022/02/10 02:04:55;;;;;;;0.47;0.47;;;;;;;;;;4964966;28;20465;-82
2022/02/10 02:07:28;;;;;;;0.10;0.10;;;;;;;;;;4979825;28;20030;-82
2022/02/10 02:09:54;;;;;;;0.63;0.63;;;;;;;;;;4976971;28;20309;-82
2022/02/10 02:12:20;;;;;;;0.43;0.43;;;;;;;;;;4973399;28;20039;-82
2022/02/10 02:14:46;;;;;;;3.42;0.73;;;;;;;;;;4969871;28;20600;-81
2022/02/10 02:17:12;;;;;;;0.35;0.35;;;;;;;;;;4972943;28;20113;-81
2022/02/10 02:19:39;;;;;;;0.10;0.10;;;;;;;;;;4973932;28;20421;-81
2022/02/10 02:22:08;;;;;;;0.10;0.10;;;;;;;;;;4978092;28;20045;-83
2022/02/10 02:24:35;;;;;;;0.10;0.10;;;;;;;;;;4992831;28;20033;-82
2022/02/10 02:27:04;;;;;;;0.10;0.10;;;;;;;;;;5036611;28;20045;-82
2022/02/10 02:29:39;;;;;;;0.10;0.10;;;;;;;;;;5031986;28;20052;-82
2022/02/10 02:32:12;;;;;;;0.65;0.65;;;;;;;;;;5013661;28;20029;-84
2022/02/10 03:07:30;;;;;;;3.40;0.65;;;;;;;;;;5043059;28;20037;-83
2022/02/10 03:10:17;;;;;;;0.10;0.10;;;;;;;;;;5038073;28;20075;-82
2022/02/10 03:12:43;;;;;;;0.10;0.10;;;;;;;;;;5015145;28;20026;-82
2022/02/10 03:15:56;;;;;;;0.10;0.10;;;;;;;;;;5039180;28;20032;-83
2022/02/10 03:18:19;;;;;;;0.43;0.38;;;;;;;;;;5041970;28;20041;-83
2022/02/10 04:02:13;;;;;;;0.20;0.20;;;;;;;;;;5009544;28;20080;-84
2022/02/10 04:12:34;;;;;;;0.20;0.20;;;;;;;;;;5016338;28;20124;-83
2022/02/10 04:20:16;;;;;;;0.10;0.10;;;;;;;;;;5032068;28;20041;-84
2022/02/10 04:23:01;;;;;;;0.30;0.30;;;;;;;;;;5042487;28;20491;-88
2022/02/10 04:43:03;;;;;;;0.30;0.30;;;;;;;;;;5034408;28;20086;-87
2022/02/10 05:22:35;;;;;;;0.40;0.40;;;;;;;;;;4991896;28;20394;-85
2022/02/10 05:33:18;;;;;;;0.20;0.20;;;;;;;;;;4993194;28;20072;-83
2022/02/10 05:38:47;;;;;;;0.10;0.10;;;;;;;;;;4995505;28;20536;-82
2022/02/10 05:54:16;;;;;;;0.15;0.15;;;;;;;;;;5023580;28;20417;-81
2022/02/10 05:57:05;;;;;;;0.75;0.45;;;;;;;;;;5018130;28;20111;-81
2022/02/10 07:52:02;;;;;;;0.10;0.10;;;;;;;;;;4870436;29;20823;-83
2022/02/10 07:57:29;;;;;;;2.60;0.90;;;;;;;;;;4963941;28;20066;-83
2022/02/10 08:56:53;;;;;;;0.20;0.20;;;;;;;;;;5043550;28;20052;-83
2022/02/10 09:04:30;;;;;;;0.10;0.10;;;;;;;;;;5040735;28;20043;-83
2022/02/10 09:07:12;;;;;;;0.20;0.20;;;;;;;;;;5043170;28;20282;-83
2022/02/10 09:25:52;;;;;;;0.40;0.40;;;;;;;;;;5042802;28;20044;-83
2022/02/10 10:02:40;;;;;;;0.17;0.17;;;;;;;;;;5027707;28;20041;-82
2022/02/10 10:05:21;;;;;;;2.13;0.45;;;;;;;;;;5043664;28;20102;-89
2022/02/10 10:56:17;;;;;;;0.20;0.20;;;;;;;;;;5046789;28;20033;-88
2022/02/10 11:38:17;;;;;;;0.50;0.50;;;;;;;;;;4964018;28;20174;-89
2022/02/10 11:41:09;;;;;;;0.10;0.10;;;;;;;;;;4956142;28;20114;-89
2022/02/10 12:00:57;;;;;;;0.35;0.35;;;;;;;;;;5046519;28;20036;-90
2022/02/10 13:30:19;;;;;;;0.30;0.30;;;;;;;;;;5029606;28;20044;-90
2022/02/10 13:35:43;;;;;;;0.73;0.73;;;;;;;;;;5008992;28;20416;-91
2022/02/10 13:50:07;;;;;;;0.10;0.10;;;;;;;;;;5027018;28;20127;-91
2022/02/10 14:09:09;;;;;;;2.42;0.82;;;;;;;;;;5027729;28;20107;-91
2022/02/10 14:14:05;;;;;;;0.10;0.10;;;;;;;;;;5027230;28;20057;-84
2022/02/10 14:18:56;;;;;;;0.30;0.30;;;;;;;;;;5026855;28;20037;-83
2022/02/10 14:21:31;;;;;;;0.20;0.20;;;;;;;;;;5026502;28;20090;-83
2022/02/10 14:26:43;;;;;;;0.20;0.20;;;;;;;;;;5026774;28;20459;-84
2022/02/10 14:29:09;;;;;;;0.20;0.20;;;;;;;;;;5026819;28;20048;-83
2022/02/10 14:31:35;;;;;;;0.20;0.20;;;;;;;;;;5044526;28;20099;-83
2022/02/10 14:34:01;;;;;;;0.10;0.10;;;;;;;;;;5044876;28;20357;-83
2022/02/10 14:36:41;;;;;;;0.93;0.90;;;;;;;;;;5046602;28;20039;-83
2022/02/10 14:42:28;;;;;;;0.10;0.10;;;;;;;;;;5046329;28;20037;-84
2022/02/10 16:17:06;;;;;;;0.20;0.20;;;;;;;;;;4913807;29;20193;-84
2022/02/10 16:19:36;;;;;;;0.10;0.10;;;;;;;;;;4908797;29;20685;-83
2022/02/10 16:22:21;;;;;;;0.20;0.17;;;;;;;;;;4912635;29;20623;-87
2022/02/10 16:25:02;;;;;;;1.65;0.35;;;;;;;;;;4904729;29;20043;-87
2022/02/10 16:27:30;;;;;;;0.45;0.30;;;;;;;;;;4946423;28;20521;-86
2022/02/10 16:30:01;;;;;;;0.20;0.20;;;;;;;;;;4957987;28;20634;-88
2022/02/10 16:32:29;;;;;;;0.50;0.50;;;;;;;;;;4961754;28;20911;-86
2022/02/10 16:34:56;;;;;;;0.20;0.20;;;;;;;;;;4960838;28;20035;-86
2022/02/10 16:37:22;;;;;;;0.40;0.40;;;;;;;;;;4966340;28;20070;-86
2022/02/10 16:39:49;;;;;;;0.20;0.20;;;;;;;;;;4964674;28;20569;-86
2022/02/10 16:42:16;;;;;;;0.20;0.20;;;;;;;;;;5039483;28;20036;-86
2022/02/10 16:44:43;;;;;;;0.75;0.52;;;;;;;;;;5040655;28;20150;-86
2022/02/10 16:47:10;;;;;;;0.30;0.30;;;;;;;;;;5037971;28;20464;-86
2022/02/10 16:49:38;;;;;;;0.20;0.20;;;;;;;;;;5041361;28;20579;-87
2022/02/10 16:52:07;;;;;;;0.10;0.10;;;;;;;;;;5039050;28;20040;-83
2022/02/10 16:54:39;;;;;;;0.30;0.30;;;;;;;;;;5038283;28;20055;-86
2022/02/10 16:57:14;;;;;;;0.20;0.20;;;;;;;;;;5039853;28;20607;-86
2022/02/10 17:20:42;;;;;;;0.28;0.28;;;;;;;;;;5040378;28;20492;-83
2022/02/10 17:26:19;;;;;;;0.22;0.22;;;;;;;;;;5038055;28;20044;-86
2022/02/10 17:28:46;;;;;;;0.13;0.13;;;;;;;;;;5028858;28;20052;-85
2022/02/10 17:34:03;;;;;;;0.22;0.22;;;;;;;;;;5021909;28;20064;-87
2022/02/10 17:36:42;;;;;;;1.98;0.45;;;;;;;;;;5023950;28;20753;-84
2022/02/10 17:42:14;;;;;;;1.70;0.47;;;;;;;;;;5025240;28;20734;-85
2022/02/10 17:52:21;;;;;;;0.10;0.10;;;;;;;;;;5024993;28;20044;-86
2022/02/10 17:54:47;;;;;;;0.30;0.30;;;;;;;;;;5013488;28;20030;-85
2022/02/10 17:57:14;;;;;;;0.35;0.35;;;;;;;;;;5021743;28;20037;-89
2022/02/10 17:59:40;;;;;;;0.20;0.20;;;;;;;;;;5025312;28;20496;-88
2022/02/10 18:02:07;;;;;;;0.73;0.73;;;;;;;;;;5022439;28;20038;-83
2022/02/10 18:04:33;;;;;;;0.20;0.20;;;;;;;;;;5020131;28;20861;-81
2022/02/10 18:06:59;;;;;;;0.20;0.20;;;;;;;;;;5018509;28;20308;-81
2022/02/10 18:17:21;;;;;;;0.10;0.10;;;;;;;;;;5020299;28;20037;-79
2022/02/10 18:19:52;;;;;;;0.20;0.20;;;;;;;;;;5021486;28;20064;-80
2022/02/10 18:27:23;;;;;;;0.20;0.20;;;;;;;;;;5019540;28;20175;-81
2022/02/10 18:30:12;;;;;;;0.20;0.20;;;;;;;;;;5026301;28;20041;-81
2022/02/10 19:07:53;;;;;;;3.75;0.65;;;;;;;;;;5037688;28;20045;-81
2022/02/10 19:10:22;;;;;;;0.10;0.10;;;;;;;;;;5025459;28;20440;-81
2022/02/10 19:12:53;;;;;;;0.40;0.40;;;;;;;;;;5017226;28;20028;-81
2022/02/10 19:15:25;;;;;;;0.20;0.20;;;;;;;;;;5042192;28;20025;-81
2022/02/10 19:17:52;;;;;;;0.40;0.40;;;;;;;;;;5045209;28;20048;-81
2022/02/10 19:20:20;;;;;;;0.20;0.20;;;;;;;;;;5043323;28;20484;-83
2022/02/10 19:22:46;;;;;;;0.20;0.20;;;;;;;;;;5040623;28;20037;-82
2022/02/10 19:25:13;;;;;;;0.20;0.20;;;;;;;;;;5043590;28;20593;-83
2022/02/10 19:27:40;;;;;;;0.10;0.10;;;;;;;;;;5040825;28;20041;-83
2022/02/10 19:30:09;;;;;;;4.65;0.57;;;;;;;;;;5038857;28;20048;-83
2022/02/10 19:32:35;;;;;;;0.10;0.10;;;;;;;;;;5039027;28;20024;-84
2022/02/10 19:35:02;;;;;;;0.30;0.30;;;;;;;;;;5044651;28;20036;-82
2022/02/10 19:37:30;;;;;;;0.55;0.43;;;;;;;;;;5043106;28;20533;-82
2022/02/10 19:39:59;;;;;;;0.13;0.13;;;;;;;;;;5042789;28;20037;-82
2022/02/10 19:42:28;;;;;;;0.85;0.85;;;;;;;;;;5028764;28;20040;-82
2022/02/10 19:45:00;;;;;;;1.58;1.48;;;;;;;;;;5031910;28;20024;-82
2022/02/10 19:47:30;;;;;;;0.52;0.25;;;;;;;;;;5042157;28;20033;-82
2022/02/10 19:49:57;;;;;;;0.15;0.15;;;;;;;;;;5040621;28;20033;-82
2022/02/10 19:52:23;;;;;;;0.25;0.25;;;;;;;;;;5036953;28;20025;-82
2022/02/10 19:54:52;;;;;;;0.83;0.53;;;;;;;;;;5041195;28;20882;-82
2022/02/10 19:57:21;;;;;;;0.85;0.45;;;;;;;;;;5037386;28;20025;-82
2022/02/10 19:59:48;;;;;;;1.15;0.43;;;;;;;;;;5038137;28;20026;-83
2022/02/10 20:02:16;;;;;;;0.20;0.20;;;;;;;;;;5037414;28;20529;-85
2022/02/10 20:04:42;;;;;;;0.22;0.22;;;;;;;;;;5040043;28;20051;-86
2022/02/10 20:07:11;;;;;;;0.20;0.20;;;;;;;;;;5040379;28;20025;-82
2022/02/10 20:09:37;;;;;;;0.45;0.45;;;;;;;;;;5037884;28;20041;-85
2022/02/10 20:12:03;;;;;;;0.50;0.47;;;;;;;;;;5037043;28;20095;-86
2022/02/10 20:14:29;;;;;;;0.43;0.43;;;;;;;;;;5039906;28;20035;-85
2022/02/10 20:16:57;;;;;;;0.25;0.25;;;;;;;;;;5040372;28;20027;-83
2022/02/10 20:19:23;;;;;;;0.20;0.20;;;;;;;;;;5041215;28;20059;-83
2022/02/10 20:21:50;;;;;;;0.10;0.10;;;;;;;;;;5036491;28;20108;-85
2022/02/10 20:24:16;;;;;;;0.40;0.40;;;;;;;;;;5038052;28;20806;-85
2022/02/10 20:26:43;;;;;;;0.43;0.43;;;;;;;;;;5039569;28;20037;-86
2022/02/10 20:29:11;;;;;;;0.50;0.50;;;;;;;;;;5039950;28;20041;-83
2022/02/10 20:31:39;;;;;;;0.60;0.60;;;;;;;;;;5023068;28;20053;-83
2022/02/10 20:34:06;;;;;;;0.15;0.15;;;;;;;;;;5019927;28;20540;-85
2022/02/10 20:36:34;;;;;;;1.95;1.85;;;;;;;;;;5020316;28;20063;-85
2022/02/10 20:39:01;;;;;;;0.10;0.10;;;;;;;;;;5021223;28;20040;-83
2022/02/10 20:41:31;;;;;;;0.65;0.38;;;;;;;;;;5022129;28;20158;-88
2022/02/10 20:43:59;;;;;;;1.65;0.73;;;;;;;;;;5019318;28;20036;-86
2022/02/10 20:46:27;;;;;;;0.88;0.88;;;;;;;;;;5022990;28;20112;-83
2022/02/10 20:48:54;;;;;;;13.23;3.30;;;;;;;;;;5019788;28;20046;-83
2022/02/10 20:51:20;;;;;;;8.40;3.85;;;;;;;;;;5022357;28;20048;-85
2022/02/10 20:53:48;;;;;;;1.90;1.73;;;;;;;;;;5022927;28;20029;-84
2022/02/10 20:56:17;;;;;;;0.77;0.70;;;;;;;;;;5023282;28;20033;-86
2022/02/10 20:58:43;;;;;;;2.25;1.30;;;;;;;;;;5022813;28;20056;-85
2022/02/10 21:01:14;;;;;;;3.60;2.22;;;;;;;;;;5024189;28;20033;-85
2022/02/10 21:03:42;;;;;;;1.27;1.17;;;;;;;;;;5023357;28;20021;-84
2022/02/10 21:08:52;;;;;;;8.43;4.70;;;;;;;;;;5023585;28;20107;-84
2022/02/10 21:11:22;;;;;;;3.05;2.42;;;;;;;;;;5023517;28;20033;-85
2022/02/10 21:13:48;;;;;;;3.00;2.33;;;;;;;;;;5023289;28;20017;-84
2022/02/10 21:16:14;;;;;;;4.40;3.57;;;;;;;;;;5023848;28;20037;-85
2022/02/10 21:18:42;;;;;;;4.13;3.73;;;;;;;;;;5025396;28;20049;-84
2022/02/10 21:21:13;;;;;;;1.63;1.02;;;;;;;;;;5023871;28;20519;-84
2022/02/10 21:23:50;;;;;;;0.38;0.38;;;;;;;;;;4992830;28;20118;-85
2022/02/10 21:26:19;;;;;;;;;;;;;;;;;;5008130;28;20091;-86
2022/02/10 21:28:45;;;;;;;4.53;1.92;;;;;;;;;;5018725;28;20308;-85
2022/02/10 21:31:11;;;;;;;4.75;2.53;;;;;;;;;;5028621;28;20052;-86
2022/02/10 21:38:59;;;;;;;4.63;0.80;;;;;;;;;;5037578;28;20030;-85
2022/02/10 22:18:48;;;;;;;1.85;1.13;;;;;;;;;;5000698;28;20037;-86
2022/02/10 22:21:20;;;;;;;0.50;0.50;;;;;;;;;;4994729;28;20038;-89
2022/02/10 22:23:47;;;;;;;0.85;0.85;;;;;;;;;;4994696;28;20506;-87
2022/02/10 22:26:24;;;;;;;2.25;1.00;;;;;;;;;;4994689;28;20060;-84
2022/02/10 22:31:30;;;;;;;2.15;2.05;;;;;;;;;;4995323;28;20060;-87
2022/02/10 22:36:31;;;;;;;2.28;1.25;;;;;;;;;;5042976;28;20488;-84
2022/02/10 22:39:02;;;;;;;7.45;3.55;;;;;;;;;;5043138;28;20609;-83
2022/02/10 22:41:28;;;;;;;3.42;3.17;;;;;;;;;;5045282;28;20025;-83
2022/02/10 22:43:55;;;;;;;5.35;3.40;;;;;;;;;;5045517;28;20090;-82
2022/02/10 22:46:22;;;;;;;7.93;4.63;;;;;;;;;;5031363;28;20413;-81
2022/02/10 22:48:49;;;;;;;3.47;2.22;;;;;;;;;;5045669;28;20112;-83
2022/02/10 22:51:16;;;;;;;4.05;3.58;;;;;;;;;;5045635;28;20066;-84
2022/02/10 22:53:42;;;;;;;2.33;2.17;;;;;;;;;;5043732;28;20945;-85
2022/02/10 22:56:09;;;;;;;1.02;1.02;;;;;;;;;;5045931;28;20104;-84
2022/02/10 22:58:37;;;;;;;0.77;0.77;;;;;;;;;;5046199;28;20018;-83
2022/02/10 23:01:04;;;;;;;0.22;0.22;;;;;;;;;;5045277;28;20098;-84
2022/02/10 23:03:36;;;;;;;0.55;0.55;;;;;;;;;;5043470;28;20049;-83
2022/02/10 23:06:02;;;;;;;0.90;0.82;;;;;;;;;;5041875;28;20037;-84
2022/02/10 23:08:28;;;;;;;0.50;0.50;;;;;;;;;;5042828;28;20025;-85
2022/02/10 23:10:55;;;;;;;0.53;0.53;;;;;;;;;;5045706;28;20041;-81
2022/02/10 23:13:25;;;;;;;1.38;1.38;;;;;;;;;;5044859;28;20113;-84
2022/02/10 23:15:51;;;;;;;1.02;1.00;;;;;;;;;;5044285;28;20033;-86
2022/02/10 23:18:22;;;;;;;0.73;0.73;;;;;;;;;;5044940;28;20060;-85
2022/02/10 23:20:49;;;;;;;0.75;0.75;;;;;;;;;;5045059;28;20032;-85
2022/02/10 23:23:17;;;;;;;0.38;0.38;;;;;;;;;;5042858;28;20492;-85
2022/02/10 23:25:44;;;;;;;0.88;0.80;;;;;;;;;;5044586;28;20033;-84
2022/02/10 23:28:14;;;;;;;0.40;0.40;;;;;;;;;;5044858;28;20040;-85
2022/02/10 23:30:46;;;;;;;0.55;0.55;;;;;;;;;;5042829;28;20551;-86
2022/02/10 23:33:50;;;;;;;0.47;0.47;;;;;;;;;;5042940;28;20021;-83
2022/02/10 23:38:50;;;;;;;0.43;0.43;;;;;;;;;;5039461;28;20025;-85
2022/02/10 23:43:52;;;;;;;0.30;0.30;;;;;;;;;;5028346;28;20044;-84
2022/02/10 23:46:19;;;;;;;0.30;0.30;;;;;;;;;;5027374;28;20033;-85
2022/02/10 23:48:46;;;;;;;1.20;1.17;;;;;;;;;;5036690;28;20025;-84
2022/02/10 23:51:12;;;;;;;1.45;1.00;;;;;;;;;;5035895;28;20794;-83
2022/02/10 23:53:38;;;;;;;0.20;0.20;;;;;;;;;;5040519;28;20065;-84
2022/02/10 23:56:09;;;;;;;0.88;0.88;;;;;;;;;;5042780;28;20025;-83
